This is the latest recevied weather packets stored in our database for station/object YB3RDW-13. If no packets are shown the sender has not sent any weather packets the latest 1 day(s).
| Time | Temp. | Humidity | Pressure | Rain* | Wind** | Luminosity | Snow |
|---|---|---|---|---|---|---|---|
| 1778048218 | 33.33° C | 60% | 1010 hPa | 0 mm | 3.13 m/s, 306° | 545 W/m² | - |
| 1778047918 | 33.33° C | 57% | 1010 hPa | 0 mm | 2.68 m/s, 339° | 542 W/m² | - |
| 1778047617 | 33.33° C | 56% | 1010 hPa | 0 mm | 3.58 m/s, 277° | 564 W/m² | - |
| 1778047317 | 33.33° C | 56% | 1010 hPa | 0 mm | 3.58 m/s, 262° | 590 W/m² | - |
| 1778047019 | 33.33° C | 56% | 1010 hPa | 0 mm | 3.58 m/s, 267° | 590 W/m² | - |
| 1778046717 | 33.33° C | 57% | 1010 hPa | 0 mm | 2.24 m/s, 195° | 598 W/m² | - |
| 1778046417 | 33.33° C | 56% | 1010 hPa | 0 mm | 2.68 m/s, 284° | 617 W/m² | - |
| 1778046117 | 33.89° C | 56% | 1010 hPa | 0 mm | 1.79 m/s, 211° | 616 W/m² | - |
| 1778045818 | 33.33° C | 58% | 1010 hPa | 0 mm | 1.34 m/s, 201° | 623 W/m² | - |
| 1778045522 | 33.33° C | 57% | 1010 hPa | 0 mm | 1.79 m/s, 311° | 631 W/m² | - |
| 1778045218 | 33.33° C | 57% | 1010 hPa | 0 mm | 1.79 m/s, 159° | 628 W/m² | - |
| 1778044918 | 33.33° C | 57% | 1010 hPa | 0 mm | 2.68 m/s, 291° | 640 W/m² | - |
| 1778044618 | 32.78° C | 56% | 1011 hPa | 0 mm | 3.58 m/s, 282° | 648 W/m² | - |
| 1778044318 | 32.78° C | 59% | 1011 hPa | 0 mm | 4.47 m/s, 271° | 650 W/m² | - |
| 1778044019 | 32.78° C | 58% | 1011 hPa | 0 mm | 3.13 m/s, 343° | 664 W/m² | - |
| 1778043717 | 32.78° C | 58% | 1011 hPa | 0 mm | 4.02 m/s, 284° | 685 W/m² | - |
| 1778043418 | 32.78° C | 58% | 1011 hPa | 0 mm | 4.47 m/s, 321° | 690 W/m² | - |
| 1778043117 | 32.78° C | 61% | 1011 hPa | 0 mm | 1.34 m/s, 119° | 690 W/m² | - |
| 1778042819 | 32.78° C | 62% | 1011 hPa | 0 mm | 4.02 m/s, 322° | 700 W/m² | - |
| 1778042518 | 32.78° C | 63% | 1011 hPa | 0 mm | 3.13 m/s, 315° | 368 W/m² | - |
| 1778042217 | 32.78° C | 61% | 1011 hPa | 0 mm | 3.58 m/s, 241° | 721 W/m² | - |
| 1778041917 | 33.33° C | 60% | 1011 hPa | 0 mm | 3.58 m/s, 275° | 700 W/m² | - |
| 1778041617 | 32.78° C | 62% | 1011 hPa | 0 mm | 2.24 m/s, 48° | 722 W/m² | - |
| 1778041317 | 32.78° C | 62% | 1011 hPa | 0 mm | 3.13 m/s, 291° | 690 W/m² | - |
| 1778041018 | 32.78° C | 61% | 1011 hPa | 0 mm | 3.13 m/s, 337° | 699 W/m² | - |
* Rain latest hour (hover to see other rain measurements)
** Current wind speed in m/s (hover to see current wind gust speed)